Kezdőlap
METAR-TAF:

METAR-TAF

Repülőterek :

Jönköping, Svédország

földrajzi szélesség: 57-46N, földrajzi hosszúság: 014-05E, magasság: 226 m

Jelenlegi meteorológiai megfigyelések

A jelentés 17 perccel ezelõtt készült, 20:50 UTC
Nyugati szél 5 kt
Hőmérséklet 16°C
Páratartalom 82%
Légköri nyomás 1018 hPa
Látótávolság 10 km, vagy több

METAR: ESGJ 192050Z AUTO 28005KT 9999 NCD 16/13 Q1018

Idő: 23:07 (21:07 UTC)

Előrejelzés

A jelentés 9 órával és 37 perccel ezelõtt készült, 11:30 UTC
Az előrejelzés 19-én 12 óra UTC és 19-én 14 óra UTC között érvényes
Nyugat-délnyugati szél 5 kt
Látótávolság 10 km, vagy több
Szórványos felhőzet 4000 lábon

TAF: ESGJ 191130Z 1912/1914 25005KT 9999 SCT040

Meteorológiai megfigyelések és előrejelzések több, mint 4000 repülőtéren (METAR és TAF jelentéseket).

A térképen piros és sárga pontok jelzik az elérhető meteorológiai állomásokat.

Mozgassa az egeret a pont fölött, hogy megjelenjen az állomás neve.

Azután kattintson az időjárási megfigyelések és előrejelzések megtekintéséhez.

A térkép megváltoztatása: kattintson a fekete keresztel jelölt zöld gombra ráközelítéshez, a vonallal jelölt zöld gombra távolításhoz, vagy a zöld nyilakra a szomszédos térképek eléréséhez.


METAR-TAF: